Time;durP1;ratioP1;P1;durP2;ratioP2;P2;SDS_P1;SDS_P2;PMS_P1;PMS_P2;Temp;Humidity;BMP_temperature;BMP_pressure;BME280_temperature;BME280_humidity;BME280_pressure;Samples;Min_cycle;Max_cycle;Signal;HPM_P1;HPM_P2
2021/03/29 00:02:04;;;;;;;6.40;3.25;;;10.30;77.00;;;;;;5029355;28;20116;-53
2021/03/29 00:04:30;;;;;;;12.88;3.45;;;10.20;77.30;;;;;;5029946;28;20046;-52
2021/03/29 00:06:59;;;;;;;10.20;3.55;;;10.20;77.30;;;;;;5030666;28;20050;-50
2021/03/29 00:09:25;;;;;;;7.38;2.88;;;10.20;77.60;;;;;;5030796;28;20025;-48
2021/03/29 00:11:54;;;;;;;8.68;4.13;;;10.30;78.10;;;;;;5030699;28;20037;-52
2021/03/29 00:14:22;;;;;;;10.80;3.45;;;10.20;78.00;;;;;;5029734;28;20072;-48
2021/03/29 00:16:48;;;;;;;6.00;3.05;;;10.20;77.90;;;;;;5031090;28;20057;-52
2021/03/29 00:19:14;;;;;;;7.53;3.28;;;10.20;78.70;;;;;;5030903;28;20367;-48
2021/03/29 00:21:40;;;;;;;8.32;3.28;;;10.10;78.70;;;;;;5030862;28;20104;-49
2021/03/29 00:24:07;;;;;;;6.97;3.40;;;10.10;78.90;;;;;;5029657;28;20049;-47
2021/03/29 00:26:35;;;;;;;7.70;2.65;;;10.10;78.90;;;;;;5030642;28;20454;-50
2021/03/29 00:29:00;;;;;;;7.97;3.33;;;10.10;78.70;;;;;;5031102;28;20030;-53
2021/03/29 00:31:26;;;;;;;8.38;2.65;;;10.10;78.90;;;;;;5031184;28;20219;-47
2021/03/29 00:33:54;;;;;;;8.60;3.25;;;10.10;79.00;;;;;;5030148;28;20079;-50
2021/03/29 00:36:24;;;;;;;11.75;3.13;;;10.00;79.30;;;;;;5030847;28;20035;-50
2021/03/29 00:38:51;;;;;;;12.88;3.28;;;10.00;79.50;;;;;;5029067;28;20063;-49
2021/03/29 00:41:18;;;;;;;9.18;2.80;;;9.90;79.40;;;;;;5030657;28;20034;-52
2021/03/29 00:43:45;;;;;;;7.93;2.58;;;9.90;79.30;;;;;;5029551;28;20506;-48
2021/03/29 00:46:13;;;;;;;5.03;2.75;;;9.90;79.40;;;;;;5030637;28;20032;-47
2021/03/29 00:48:41;;;;;;;9.43;3.17;;;9.90;80.00;;;;;;5029145;28;20372;-47
2021/03/29 00:51:12;;;;;;;11.55;3.22;;;9.90;79.70;;;;;;5030094;28;20061;-47
2021/03/29 00:53:41;;;;;;;7.35;2.55;;;9.90;80.00;;;;;;5029452;28;20032;-55
2021/03/29 00:56:07;;;;;;;7.60;3.00;;;9.90;80.10;;;;;;5030122;28;20497;-51
2021/03/29 00:58:34;;;;;;;10.73;3.38;;;9.80;80.30;;;;;;5028670;28;20375;-52
2021/03/29 01:01:09;;;;;;;10.90;3.42;;;9.80;80.30;;;;;;5029955;28;20112;-49
2021/03/29 01:03:38;;;;;;;11.52;3.35;;;9.80;80.50;;;;;;5029115;28;20168;-51
2021/03/29 01:06:10;;;;;;;7.10;3.42;;;9.70;80.50;;;;;;5029935;28;20331;-50
2021/03/29 01:08:39;;;;;;;7.78;3.45;;;9.70;80.90;;;;;;5029873;28;20017;-50
2021/03/29 01:11:07;;;;;;;10.27;2.92;;;9.60;81.00;;;;;;5032848;28;20021;-51
2021/03/29 01:13:35;;;;;;;6.95;3.28;;;9.50;81.30;;;;;;5032530;28;20063;-50
2021/03/29 01:16:03;;;;;;;9.23;3.97;;;9.60;81.60;;;;;;5032980;28;20094;-50
2021/03/29 01:18:31;;;;;;;7.80;3.03;;;9.60;81.70;;;;;;5032982;28;20038;-51
2021/03/29 01:21:11;;;;;;;10.95;3.20;;;9.60;81.80;;;;;;5033376;28;20031;-48
2021/03/29 01:23:37;;;;;;;11.35;3.17;;;9.50;81.70;;;;;;5032341;28;20176;-55
2021/03/29 01:26:09;;;;;;;7.35;3.15;;;9.50;82.20;;;;;;5031561;28;20034;-54
2021/03/29 01:28:36;;;;;;;9.30;3.50;;;9.50;82.50;;;;;;5032975;28;20026;-52
2021/03/29 01:31:02;;;;;;;9.00;3.42;;;9.50;82.50;;;;;;5033172;28;20433;-54
2021/03/29 01:33:28;;;;;;;10.77;4.38;;;9.40;82.30;;;;;;5032421;28;20034;-50
2021/03/29 01:35:58;;;;;;;9.80;3.45;;;9.40;82.80;;;;;;5032998;28;20032;-50
2021/03/29 01:38:26;;;;;;;7.82;4.38;;;9.30;83.20;;;;;;5032844;28;20022;-54
2021/03/29 01:40:53;;;;;;;12.25;3.40;;;9.30;83.60;;;;;;5033021;28;20033;-55
2021/03/29 01:43:20;;;;;;;9.10;3.80;;;9.30;83.60;;;;;;5037457;28;20026;-48
2021/03/29 01:45:46;;;;;;;12.02;4.25;;;9.20;84.10;;;;;;5049309;28;20029;-54
2021/03/29 01:48:12;;;;;;;9.18;3.70;;;9.20;84.50;;;;;;5030912;28;20569;-52
2021/03/29 01:50:41;;;;;;;13.00;4.63;;;9.10;84.70;;;;;;5033041;28;20026;-54
2021/03/29 01:53:08;;;;;;;9.40;3.50;;;9.10;84.90;;;;;;5031148;28;20533;-57
2021/03/29 01:55:35;;;;;;;12.90;3.78;;;9.10;85.20;;;;;;5013792;28;20044;-49
2021/03/29 01:58:03;;;;;;;12.55;3.78;;;9.10;85.50;;;;;;5026240;28;20454;-54
2021/03/29 02:00:33;;;;;;;9.65;3.72;;;9.10;85.50;;;;;;5018468;28;20372;-54
2021/03/29 02:03:05;;;;;;;8.07;3.97;;;9.10;85.60;;;;;;5015972;28;20025;-54
2021/03/29 02:05:31;;;;;;;9.80;3.50;;;9.10;86.20;;;;;;5032539;28;20028;-54
2021/03/29 02:07:58;;;;;;;9.38;4.72;;;9.10;86.00;;;;;;5014280;28;20461;-53
2021/03/29 02:10:27;;;;;;;10.30;4.72;;;9.10;86.10;;;;;;5012578;28;20030;-51
2021/03/29 02:12:53;;;;;;;11.93;4.15;;;9.10;86.10;;;;;;5013057;28;20825;-53
2021/03/29 02:15:26;;;;;;;8.88;4.30;;;9.10;86.00;;;;;;5012666;28;20033;-50
2021/03/29 02:17:57;;;;;;;13.02;4.50;;;9.10;86.30;;;;;;5027894;28;20030;-53
2021/03/29 02:20:26;;;;;;;12.38;4.07;;;9.10;86.50;;;;;;5032061;28;20026;-49
2021/03/29 02:22:53;;;;;;;13.70;4.20;;;9.10;86.40;;;;;;5019056;28;20124;-48
2021/03/29 02:25:21;;;;;;;14.32;5.13;;;9.10;86.30;;;;;;5021118;28;20152;-52
2021/03/29 02:27:47;;;;;;;8.93;4.25;;;9.10;86.40;;;;;;5031771;28;20021;-54
2021/03/29 02:30:17;;;;;;;9.93;4.03;;;9.00;86.60;;;;;;5030192;28;20558;-53
2021/03/29 02:32:44;;;;;;;12.70;4.72;;;9.00;86.70;;;;;;5029939;28;20036;-53
2021/03/29 02:35:11;;;;;;;13.27;4.40;;;9.10;86.60;;;;;;5030025;28;20033;-57
2021/03/29 02:37:44;;;;;;;12.57;4.68;;;9.00;86.30;;;;;;5029954;28;20037;-52
2021/03/29 02:40:11;;;;;;;8.98;3.92;;;9.00;86.30;;;;;;5044254;28;20490;-49
2021/03/29 02:42:37;;;;;;;9.48;4.63;;;9.00;86.50;;;;;;5050991;28;20056;-48
2021/03/29 02:45:08;;;;;;;11.40;4.32;;;9.00;86.60;;;;;;5030396;28;20055;-47
2021/03/29 02:47:36;;;;;;;10.88;4.43;;;9.00;87.10;;;;;;5029900;28;20024;-52
2021/03/29 02:50:05;;;;;;;11.23;4.22;;;9.00;86.90;;;;;;5051270;28;20102;-53
2021/03/29 02:52:31;;;;;;;11.02;5.15;;;8.90;86.90;;;;;;5034579;28;20098;-52
2021/03/29 02:54:57;;;;;;;9.30;4.40;;;8.90;87.00;;;;;;5030933;28;20037;-53
2021/03/29 02:57:23;;;;;;;16.08;4.90;;;8.90;86.90;;;;;;5031380;28;20029;-53
2021/03/29 02:59:50;;;;;;;10.52;4.07;;;9.00;87.00;;;;;;5031100;28;20033;-55
2021/03/29 03:02:16;;;;;;;10.60;4.75;;;9.00;86.90;;;;;;5031098;28;20026;-54
2021/03/29 03:04:42;;;;;;;13.32;4.38;;;9.10;86.80;;;;;;5025156;28;20082;-50
2021/03/29 03:07:08;;;;;;;10.57;4.47;;;9.10;86.50;;;;;;5049253;28;20025;-54
2021/03/29 03:09:35;;;;;;;11.55;4.50;;;9.10;86.60;;;;;;5046255;28;20028;-53
2021/03/29 03:12:01;;;;;;;10.43;4.60;;;9.10;86.40;;;;;;5031554;28;20032;-56
2021/03/29 03:14:27;;;;;;;10.75;5.35;;;9.10;86.50;;;;;;5030445;28;20021;-56
2021/03/29 03:16:53;;;;;;;7.38;4.25;;;9.20;86.50;;;;;;5031014;28;20098;-55
2021/03/29 03:19:19;;;;;;;8.30;3.60;;;9.30;86.10;;;;;;5030845;28;20030;-56
2021/03/29 03:21:44;;;;;;;13.52;4.68;;;9.30;86.50;;;;;;5035949;28;20028;-53
2021/03/29 03:24:10;;;;;;;8.68;4.50;;;9.30;85.80;;;;;;5050221;28;20021;-47
2021/03/29 03:26:36;;;;;;;12.20;4.30;;;9.40;85.80;;;;;;5050978;28;20090;-46
2021/03/29 03:29:03;;;;;;;12.40;4.93;;;9.30;86.00;;;;;;5051014;28;20078;-55
2021/03/29 03:31:29;;;;;;;13.15;4.47;;;9.30;86.30;;;;;;5050768;28;20057;-51
2021/03/29 03:33:55;;;;;;;14.65;4.55;;;9.40;86.10;;;;;;5048192;28;20052;-56
2021/03/29 03:36:22;;;;;;;13.23;4.28;;;9.30;86.30;;;;;;5049471;28;20029;-54
2021/03/29 03:38:51;;;;;;;18.02;5.10;;;9.30;86.30;;;;;;5050628;28;20028;-53
2021/03/29 03:41:29;;;;;;;8.30;4.00;;;9.30;86.50;;;;;;5049375;28;20036;-50
2021/03/29 03:43:57;;;;;;;11.13;4.63;;;9.20;86.70;;;;;;5049700;28;20116;-50
2021/03/29 03:46:30;;;;;;;10.07;3.97;;;9.20;86.80;;;;;;5050543;28;20028;-50
2021/03/29 03:49:03;;;;;;;10.65;4.45;;;9.30;86.70;;;;;;5050489;28;20025;-50
2021/03/29 03:51:29;;;;;;;9.32;4.38;;;9.30;86.80;;;;;;5049124;28;20053;-53
2021/03/29 03:53:55;;;;;;;13.23;5.15;;;9.20;86.70;;;;;;5049575;28;20021;-50
2021/03/29 03:56:21;;;;;;;16.58;4.95;;;9.30;86.80;;;;;;5049126;28;20036;-51
2021/03/29 03:58:47;;;;;;;13.98;4.47;;;9.40;86.50;;;;;;5041242;28;20103;-53
2021/03/29 04:01:14;;;;;;;14.80;5.43;;;9.30;86.70;;;;;;5030564;28;20030;-54
2021/03/29 04:03:39;;;;;;;8.82;4.10;;;9.30;86.80;;;;;;5029797;28;20136;-56
2021/03/29 04:06:05;;;;;;;7.68;4.50;;;9.30;86.90;;;;;;5016252;28;20160;-52
2021/03/29 04:08:31;;;;;;;10.85;4.78;;;9.30;87.10;;;;;;5021389;28;20030;-52
2021/03/29 04:10:59;;;;;;;12.10;4.47;;;9.30;87.00;;;;;;5045881;28;20399;-52
2021/03/29 04:13:28;;;;;;;14.00;5.05;;;9.30;87.00;;;;;;5046747;28;20108;-54
2021/03/29 04:15:55;;;;;;;12.70;4.65;;;9.30;87.20;;;;;;5029973;28;20505;-55
2021/03/29 04:18:21;;;;;;;10.15;5.28;;;9.30;87.30;;;;;;5030022;28;20491;-51
2021/03/29 04:20:48;;;;;;;22.25;5.85;;;9.30;87.50;;;;;;5030172;28;20041;-52
2021/03/29 04:23:13;;;;;;;9.68;4.47;;;9.30;87.40;;;;;;5029482;28;20025;-52
2021/03/29 04:25:40;;;;;;;10.85;4.85;;;9.20;87.60;;;;;;5033140;28;20020;-54
2021/03/29 04:28:05;;;;;;;17.30;6.40;;;9.10;88.20;;;;;;5049840;28;20017;-49
2021/03/29 04:30:31;;;;;;;15.07;4.60;;;9.20;88.30;;;;;;5050034;28;20028;-54
2021/03/29 04:32:56;;;;;;;12.02;4.78;;;9.10;88.40;;;;;;5049179;28;20068;-49
2021/03/29 04:35:23;;;;;;;11.77;4.53;;;9.00;89.00;;;;;;5048510;28;20501;-50
2021/03/29 04:37:50;;;;;;;12.25;4.63;;;8.90;89.20;;;;;;5049699;28;20021;-53
2021/03/29 04:40:17;;;;;;;14.85;5.13;;;8.90;89.40;;;;;;5048481;28;20032;-51
2021/03/29 04:42:43;;;;;;;14.32;5.53;;;8.80;89.60;;;;;;5049265;28;20278;-50
2021/03/29 04:45:09;;;;;;;9.88;5.40;;;8.80;90.00;;;;;;5051661;28;20105;-50
2021/03/29 04:47:35;;;;;;;15.02;5.10;;;8.70;90.00;;;;;;5053674;28;20029;-47
2021/03/29 04:50:01;;;;;;;12.77;5.30;;;8.70;90.10;;;;;;5053573;28;20021;-47
2021/03/29 04:52:27;;;;;;;10.07;4.32;;;8.70;90.10;;;;;;5053372;28;20271;-49
2021/03/29 04:54:52;;;;;;;9.98;4.95;;;8.60;90.30;;;;;;5052863;28;20436;-51
2021/03/29 04:57:18;;;;;;;9.75;5.75;;;8.60;90.30;;;;;;5053423;28;20029;-53
2021/03/29 04:59:43;;;;;;;15.45;4.55;;;8.50;90.40;;;;;;5053478;28;20029;-52
2021/03/29 05:02:10;;;;;;;15.02;5.35;;;8.50;90.80;;;;;;5050317;28;20021;-53
2021/03/29 05:04:36;;;;;;;9.43;4.35;;;8.50;90.60;;;;;;5024982;28;20539;-52
2021/03/29 05:07:07;;;;;;;9.40;4.07;;;8.50;90.70;;;;;;5013374;28;20120;-52
2021/03/29 05:09:33;;;;;;;11.30;4.47;;;8.50;90.60;;;;;;5019088;28;20499;-53
2021/03/29 05:12:07;;;;;;;11.32;5.35;;;8.50;90.60;;;;;;5015968;28;20041;-54
2021/03/29 05:14:32;;;;;;;15.63;5.65;;;8.40;90.70;;;;;;5019299;28;20029;-54
2021/03/29 05:16:58;;;;;;;8.95;4.03;;;8.50;90.90;;;;;;5013332;28;20028;-54
2021/03/29 05:19:23;;;;;;;11.30;5.97;;;8.30;91.10;;;;;;5049168;23;20080;-50
2021/03/29 05:21:49;;;;;;;11.40;4.63;;;8.30;91.40;;;;;;5033428;28;20036;-51
2021/03/29 05:24:14;;;;;;;12.07;5.45;;;8.10;91.70;;;;;;5032222;28;20080;-55
2021/03/29 05:26:40;;;;;;;14.48;4.38;;;8.00;92.20;;;;;;5032845;28;20557;-50
2021/03/29 05:29:05;;;;;;;11.13;4.75;;;7.90;92.80;;;;;;5037476;28;20063;-53
2021/03/29 05:31:35;;;;;;;12.32;5.07;;;7.90;92.80;;;;;;5051577;28;20027;-53
2021/03/29 05:34:01;;;;;;;16.98;5.85;;;7.90;92.90;;;;;;5050653;28;20029;-52
2021/03/29 05:36:26;;;;;;;11.65;4.60;;;8.00;93.20;;;;;;5051487;28;20047;-55
2021/03/29 05:38:52;;;;;;;11.90;4.70;;;8.00;93.30;;;;;;5049500;28;20120;-48
2021/03/29 05:41:17;;;;;;;17.80;4.90;;;8.10;93.00;;;;;;5032937;28;20071;-50
2021/03/29 05:43:44;;;;;;;8.45;4.38;;;8.20;93.10;;;;;;5032060;28;20452;-54
2021/03/29 05:46:10;;;;;;;7.05;4.65;;;8.30;93.00;;;;;;5033537;28;20033;-52
2021/03/29 05:48:36;;;;;;;16.98;4.53;;;8.40;92.90;;;;;;5039138;28;20112;-51
2021/03/29 05:51:04;;;;;;;9.07;4.65;;;8.50;93.00;;;;;;5052384;28;20418;-49
2021/03/29 05:53:29;;;;;;;12.10;4.82;;;8.70;92.90;;;;;;5047373;28;20116;-54
2021/03/29 05:55:56;;;;;;;8.02;4.45;;;8.80;92.70;;;;;;5042482;28;20116;-54
2021/03/29 06:00:52;;;;;;;10.40;4.28;;;9.00;92.00;;;;;;5039500;28;20025;-53
2021/03/29 06:03:31;;;;;;;12.30;4.85;;;9.10;91.90;;;;;;5050123;28;20490;-54
2021/03/29 06:05:59;;;;;;;8.82;4.63;;;9.30;91.80;;;;;;5042948;28;20034;-52
2021/03/29 06:08:25;;;;;;;13.82;5.05;;;9.30;91.40;;;;;;5048003;28;20036;-55
2021/03/29 06:10:53;;;;;;;9.15;4.43;;;9.30;91.80;;;;;;5052217;28;20025;-54
2021/03/29 06:13:26;;;;;;;10.98;4.97;;;9.20;91.80;;;;;;5045618;28;20017;-56
2021/03/29 06:16:08;;;;;;;10.15;4.40;;;9.20;92.00;;;;;;5033136;28;20577;-55
2021/03/29 06:18:35;;;;;;;8.60;3.92;;;9.30;91.90;;;;;;5039765;28;20037;-56
2021/03/29 06:21:12;;;;;;;12.05;4.95;;;9.40;92.00;;;;;;5043834;28;20025;-54
2021/03/29 06:23:43;;;;;;;19.25;5.82;;;9.70;91.80;;;;;;5031259;28;20034;-55
2021/03/29 06:26:15;;;;;;;9.00;4.90;;;10.30;91.20;;;;;;5048205;28;20025;-54
2021/03/29 06:28:41;;;;;;;11.82;4.78;;;10.90;89.60;;;;;;5046544;28;20466;-49
2021/03/29 06:31:33;;;;;;;9.55;4.93;;;11.40;87.60;;;;;;5043922;28;20024;-53
2021/03/29 06:34:00;;;;;;;7.93;4.28;;;11.90;86.00;;;;;;5031275;28;20036;-51
2021/03/29 06:36:30;;;;;;;6.72;3.83;;;12.30;84.20;;;;;;5037078;28;20442;-55
2021/03/29 06:39:16;;;;;;;10.73;4.95;;;12.60;80.50;;;;;;5051472;28;20032;-56
2021/03/29 06:41:50;;;;;;;11.73;4.90;;;12.80;80.00;;;;;;5041851;28;20033;-54
2021/03/29 06:44:27;;;;;;;11.05;4.57;;;13.00;79.90;;;;;;5049069;28;20518;-56
2021/03/29 06:47:11;;;;;;;14.88;5.13;;;13.00;78.90;;;;;;5042666;28;20495;-56
2021/03/29 06:49:45;;;;;;;15.68;4.07;;;13.30;77.50;;;;;;5041844;28;20021;-54
2021/03/29 06:52:32;;;;;;;11.63;5.05;;;13.80;77.20;;;;;;5042233;28;20375;-53
2021/03/29 06:55:36;;;;;;;13.48;4.65;;;14.30;74.80;;;;;;5041950;28;20450;-53
2021/03/29 06:58:02;;;;;;;14.55;5.32;;;14.70;71.60;;;;;;4989162;28;20034;-50
2021/03/29 07:00:36;;;;;;;13.00;5.82;;;14.80;71.80;;;;;;5007872;28;20392;-50
2021/03/29 07:03:06;;;;;;;12.30;4.68;;;15.10;71.30;;;;;;5030033;28;20049;-52
2021/03/29 07:05:33;;;;;;;14.57;5.20;;;15.30;70.20;;;;;;5051048;28;20025;-49
2021/03/29 07:08:04;;;;;;;9.70;5.55;;;15.80;69.10;;;;;;5049827;28;20048;-49
2021/03/29 07:10:30;;;;;;;12.93;5.13;;;16.00;67.70;;;;;;5049627;28;20078;-51
2021/03/29 07:12:57;;;;;;;14.00;4.50;;;16.10;67.20;;;;;;5030341;28;20026;-54
2021/03/29 07:15:23;;;;;;;9.63;4.88;;;16.60;67.10;;;;;;5030844;28;20471;-51
2021/03/29 07:17:50;;;;;;;11.07;4.63;;;17.00;66.40;;;;;;5030694;28;20419;-50
2021/03/29 07:20:25;;;;;;;7.72;4.60;;;17.30;65.30;;;;;;5031112;28;20495;-50
2021/03/29 07:22:54;;;;;;;13.50;4.68;;;17.50;64.60;;;;;;5030139;28;20232;-50
2021/03/29 07:25:27;;;;;;;16.45;4.45;;;17.90;62.40;;;;;;5030858;28;20056;-49
2021/03/29 07:27:56;;;;;;;11.48;4.38;;;18.00;61.90;;;;;;5035278;28;20044;-51
2021/03/29 07:30:44;;;;;;;12.95;4.15;;;17.90;61.60;;;;;;5050427;28;20107;-49
2021/03/29 07:33:11;;;;;;;8.48;4.35;;;18.30;60.60;;;;;;5049748;28;20482;-54
2021/03/29 07:35:48;;;;;;;16.48;4.57;;;18.30;59.10;;;;;;5049207;28;20124;-54
2021/03/29 07:38:14;;;;;;;11.63;3.90;;;18.50;59.00;;;;;;5047328;28;20021;-51
2021/03/29 07:40:42;;;;;;;8.55;3.78;;;18.60;58.40;;;;;;5035645;28;20566;-49
2021/03/29 07:43:13;;;;;;;12.80;4.60;;;18.70;57.50;;;;;;5039980;28;20060;-51
2021/03/29 07:45:45;;;;;;;16.10;4.53;;;18.90;57.10;;;;;;5039759;28;20438;-55
2021/03/29 07:48:15;;;;;;;9.32;4.05;;;18.70;57.20;;;;;;5048556;28;20146;-53
2021/03/29 07:50:40;;;;;;;12.35;4.65;;;18.60;57.60;;;;;;5050342;28;20017;-51
2021/03/29 07:53:20;;;;;;;13.07;4.82;;;18.60;57.90;;;;;;5047719;28;20563;-53
2021/03/29 07:55:51;;;;;;;11.73;5.38;;;19.20;57.00;;;;;;5050254;28;20071;-54
2021/03/29 07:58:19;;;;;;;9.90;3.65;;;19.90;55.80;;;;;;5048483;28;20025;-51
2021/03/29 08:00:48;;;;;;;10.10;3.90;;;20.60;54.10;;;;;;5048611;28;20067;-49
2021/03/29 08:03:13;;;;;;;7.88;3.78;;;20.90;53.30;;;;;;5029486;28;20018;-51
2021/03/29 08:05:42;;;;;;;10.52;3.95;;;21.30;52.80;;;;;;5031464;28;20505;-51
2021/03/29 08:08:26;;;;;;;7.03;3.75;;;22.10;51.90;;;;;;5050311;28;20122;-53
2021/03/29 08:11:18;;;;;;;14.70;4.05;;;22.30;49.90;;;;;;5048856;28;20442;-57
2021/03/29 08:13:55;;;;;;;9.48;4.63;;;22.60;49.50;;;;;;5041223;28;20041;-51
2021/03/29 08:16:20;;;;;;;11.93;4.80;;;22.90;48.20;;;;;;5044514;28;20029;-52
2021/03/29 08:19:05;;;;;;;14.18;4.35;;;22.60;48.30;;;;;;5040727;28;20030;-52
2021/03/29 08:21:49;;;;;;;11.75;5.72;;;22.20;48.30;;;;;;5037432;28;20033;-50
2021/03/29 08:24:31;;;;;;;12.57;4.28;;;22.10;48.30;;;;;;5044493;28;20032;-51
2021/03/29 08:26:59;;;;;;;15.50;5.03;;;21.30;49.10;;;;;;5053957;28;20319;-50
2021/03/29 08:29:31;;;;;;;12.70;4.55;;;20.30;50.40;;;;;;5033696;28;20487;-48
2021/03/29 08:32:15;;;;;;;12.23;5.28;;;19.00;52.80;;;;;;5041560;28;20036;-47
2021/03/29 08:34:50;;;;;;;8.07;3.78;;;17.70;55.50;;;;;;5033870;28;20498;-52
2021/03/29 08:37:24;;;;;;;8.05;4.07;;;17.10;58.60;;;;;;5035019;28;20044;-48
2021/03/29 08:39:51;;;;;;;9.57;4.38;;;16.60;59.40;;;;;;5033311;28;20048;-52
2021/03/29 08:42:20;;;;;;;10.27;4.53;;;16.20;60.50;;;;;;5034848;28;20068;-51
2021/03/29 08:44:47;;;;;;;10.23;4.82;;;15.80;61.30;;;;;;5037516;28;20113;-47
2021/03/29 08:47:16;;;;;;;10.13;4.55;;;15.70;61.80;;;;;;5045024;28;20026;-47
2021/03/29 08:49:42;;;;;;;8.45;4.40;;;15.60;63.00;;;;;;5033938;28;20022;-47
2021/03/29 08:52:11;;;;;;;12.35;4.50;;;15.90;62.90;;;;;;5033922;28;20025;-50
2021/03/29 08:54:50;;;;;;;9.40;4.20;;;17.10;60.00;;;;;;5046850;28;20037;-53
2021/03/29 08:57:16;;;;;;;7.22;3.22;;;18.50;57.50;;;;;;5053645;28;20117;-53
2021/03/29 08:59:42;;;;;;;8.20;4.85;;;19.50;54.10;;;;;;5048919;28;20431;-60
2021/03/29 09:02:16;;;;;;;17.38;4.57;;;20.40;53.50;;;;;;5034779;28;20034;-48
2021/03/29 09:04:48;;;;;;;11.60;3.77;;;21.50;51.40;;;;;;5028685;28;20371;-51
2021/03/29 09:07:14;;;;;;;11.23;3.28;;;22.20;49.40;;;;;;5050476;28;20025;-51
2021/03/29 09:09:40;;;;;;;8.80;3.78;;;22.90;48.90;;;;;;5052244;28;20048;-51
2021/03/29 09:12:06;;;;;;;8.93;3.25;;;23.30;47.30;;;;;;5052050;28;20037;-46
2021/03/29 09:14:34;;;;;;;6.82;3.40;;;24.00;46.30;;;;;;5051930;28;20029;-51
2021/03/29 09:17:01;;;;;;;7.90;2.97;;;24.00;46.00;;;;;;5043519;28;20487;-54
2021/03/29 09:19:27;;;;;;;15.63;3.35;;;24.30;45.60;;;;;;5031527;28;20461;-53
2021/03/29 09:21:57;;;;;;;12.57;3.53;;;24.80;43.80;;;;;;5032314;28;20033;-50
2021/03/29 09:24:25;;;;;;;10.38;3.00;;;24.80;43.90;;;;;;5050023;28;20075;-54
2021/03/29 09:27:00;;;;;;;5.30;3.05;;;24.80;44.00;;;;;;5051498;28;20111;-53
2021/03/29 09:29:33;;;;;;;13.52;3.88;;;25.10;43.80;;;;;;5051931;28;20021;-50
2021/03/29 09:32:17;;;;;;;14.18;4.00;;;24.40;43.90;;;;;;5051060;28;20080;-52
2021/03/29 09:34:47;;;;;;;9.85;3.67;;;23.40;44.90;;;;;;5051113;28;20029;-50
2021/03/29 09:37:28;;;;;;;10.48;3.03;;;22.60;46.20;;;;;;5045670;28;20108;-52
2021/03/29 09:40:05;;;;;;;5.97;3.13;;;22.10;47.20;;;;;;5042843;28;20104;-49
2021/03/29 09:42:58;;;;;;;9.30;3.17;;;21.70;48.20;;;;;;5031517;28;20032;-48
2021/03/29 09:45:29;;;;;;;5.78;3.20;;;21.50;47.50;;;;;;5030399;28;20320;-52
2021/03/29 09:48:07;;;;;;;12.23;3.40;;;21.30;48.30;;;;;;5031847;28;20036;-49
2021/03/29 09:50:35;;;;;;;6.93;3.38;;;21.20;48.60;;;;;;5042208;28;20025;-47
2021/03/29 09:53:18;;;;;;;10.05;3.78;;;21.00;48.70;;;;;;5045456;28;20028;-49
2021/03/29 09:55:50;;;;;;;7.18;4.03;;;20.90;48.90;;;;;;5032680;28;20021;-51
2021/03/29 09:58:22;;;;;;;8.63;3.55;;;20.80;48.90;;;;;;5034876;28;20030;-50
2021/03/29 10:00:54;;;;;;;10.15;3.70;;;20.60;49.20;;;;;;5050973;28;20079;-50
2021/03/29 10:03:21;;;;;;;10.73;3.58;;;20.60;49.90;;;;;;5032978;28;20025;-48
2021/03/29 10:05:48;;;;;;;10.05;3.15;;;20.40;49.70;;;;;;5049790;28;20061;-48
2021/03/29 10:08:32;;;;;;;8.88;3.00;;;20.40;50.30;;;;;;5052128;28;20425;-47
2021/03/29 10:11:05;;;;;;;13.70;3.95;;;20.20;50.40;;;;;;5049949;28;20229;-46
2021/03/29 10:13:39;;;;;;;7.65;3.05;;;20.00;50.50;;;;;;5049422;28;20021;-46
2021/03/29 10:16:27;;;;;;;9.82;2.92;;;20.00;50.40;;;;;;5052652;28;20055;-51
2021/03/29 10:19:03;;;;;;;9.15;3.20;;;20.20;50.80;;;;;;5051991;28;20033;-47
2021/03/29 10:21:28;;;;;;;10.00;2.70;;;20.00;50.10;;;;;;5052185;28;20025;-50
2021/03/29 10:24:14;;;;;;;9.13;3.60;;;20.00;49.60;;;;;;5051364;28;20060;-50
2021/03/29 10:26:51;;;;;;;17.85;3.22;;;19.90;50.20;;;;;;5052463;28;20029;-47
2021/03/29 10:29:27;;;;;;;14.20;3.22;;;19.80;51.20;;;;;;5051908;28;20033;-51
2021/03/29 10:31:52;;;;;;;10.27;3.08;;;19.70;52.50;;;;;;5050837;28;20486;-48
2021/03/29 10:34:18;;;;;;;8.32;2.70;;;19.80;51.60;;;;;;5051407;28;20039;-49
2021/03/29 10:36:43;;;;;;;7.28;2.45;;;19.90;51.00;;;;;;5052150;28;20272;-49
2021/03/29 10:39:09;;;;;;;5.93;2.83;;;19.70;50.40;;;;;;5052270;28;20029;-48
2021/03/29 10:41:35;;;;;;;8.00;3.40;;;19.40;50.90;;;;;;5052445;28;20036;-49
2021/03/29 10:44:00;;;;;;;11.93;3.30;;;19.50;51.90;;;;;;5051566;28;20025;-48
2021/03/29 10:46:26;;;;;;;7.32;2.53;;;19.50;51.40;;;;;;5052097;28;20483;-45
2021/03/29 10:48:51;;;;;;;16.77;3.25;;;19.40;50.90;;;;;;5051799;28;20021;-47
2021/03/29 10:51:17;;;;;;;7.90;3.75;;;19.30;51.40;;;;;;5051664;28;20044;-50
2021/03/29 10:53:42;;;;;;;8.68;3.70;;;19.30;52.40;;;;;;5050985;28;20040;-45
2021/03/29 10:56:08;;;;;;;7.95;2.97;;;19.30;52.30;;;;;;5051223;28;20021;-45
2021/03/29 10:58:34;;;;;;;5.75;2.80;;;19.40;52.40;;;;;;5053044;28;20025;-45
2021/03/29 11:00:59;;;;;;;6.32;2.28;;;19.50;53.20;;;;;;5052623;28;20104;-47
2021/03/29 11:03:25;;;;;;;7.85;2.75;;;19.60;52.60;;;;;;5051573;28;20078;-51
2021/03/29 11:05:50;;;;;;;7.32;2.85;;;19.40;51.10;;;;;;5052366;28;20120;-47
2021/03/29 11:08:17;;;;;;;12.77;2.85;;;19.40;51.70;;;;;;5051919;28;20049;-48
2021/03/29 11:10:43;;;;;;;8.07;3.35;;;19.40;50.90;;;;;;5050736;28;20482;-45
2021/03/29 11:13:08;;;;;;;5.95;2.80;;;19.40;52.10;;;;;;5050617;28;20108;-47
2021/03/29 11:15:34;;;;;;;10.90;3.78;;;19.50;52.80;;;;;;5050954;28;20133;-45
2021/03/29 11:20:38;;;;;;;6.70;3.08;;;19.70;51.60;;;;;;5088519;28;20075;-47
2021/03/29 11:23:04;;;;;;;8.90;2.85;;;19.70;50.60;;;;;;5090649;28;20484;-46
2021/03/29 11:25:29;;;;;;;6.95;2.88;;;19.70;51.00;;;;;;5073316;28;20024;-49
2021/03/29 11:27:55;;;;;;;6.07;2.53;;;19.80;50.90;;;;;;5091179;28;20095;-46
2021/03/29 11:30:21;;;;;;;4.90;2.55;;;19.80;51.70;;;;;;5091161;28;20032;-46
2021/03/29 11:32:46;;;;;;;5.70;2.45;;;19.80;50.90;;;;;;5090492;28;20521;-45
2021/03/29 11:35:12;;;;;;;10.43;2.60;;;19.80;50.60;;;;;;5090684;28;20016;-50
2021/03/29 11:37:39;;;;;;;10.10;2.75;;;19.70;49.50;;;;;;5090973;28;20077;-49
2021/03/29 11:40:05;;;;;;;8.70;2.90;;;19.50;51.10;;;;;;5090878;28;20030;-48
2021/03/29 11:42:31;;;;;;;12.57;3.38;;;19.40;50.10;;;;;;5090713;28;20035;-47
2021/03/29 11:44:57;;;;;;;11.15;2.88;;;19.40;49.70;;;;;;5090794;28;20024;-49
2021/03/29 11:47:22;;;;;;;8.60;2.80;;;19.20;49.60;;;;;;5090597;28;20504;-49
2021/03/29 11:49:48;;;;;;;7.88;2.63;;;19.30;50.70;;;;;;5090727;28;20028;-47
2021/03/29 11:52:14;;;;;;;9.13;2.53;;;19.40;51.40;;;;;;5092990;28;20024;-54
2021/03/29 11:54:40;;;;;;;5.93;2.25;;;19.40;52.00;;;;;;5090751;28;20193;-53
2021/03/29 11:57:06;;;;;;;8.40;2.45;;;19.60;49.80;;;;;;5092010;28;20031;-51
2021/03/29 11:59:32;;;;;;;6.50;2.28;;;19.70;50.40;;;;;;5073752;28;20032;-54
2021/03/29 12:02:10;;;;;;;6.43;2.25;;;19.60;49.50;;;;;;5091470;28;20025;-54
2021/03/29 12:04:46;;;;;;;6.60;3.17;;;19.60;49.50;;;;;;5091389;28;20111;-55
2021/03/29 12:07:21;;;;;;;3.08;1.92;;;19.70;50.00;;;;;;5091770;28;20382;-51
2021/03/29 12:12:13;;;;;;;5.70;2.58;;;19.60;48.70;;;;;;5091088;28;20413;-53
2021/03/29 12:14:40;;;;;;;4.47;2.10;;;19.60;49.80;;;;;;5090783;28;20020;-52
2021/03/29 12:17:09;;;;;;;3.97;2.25;;;19.70;49.70;;;;;;5091738;28;20476;-53
2021/03/29 12:19:37;;;;;;;3.58;2.00;;;19.80;48.90;;;;;;5089973;28;20040;-53
2021/03/29 12:22:09;;;;;;;6.82;1.80;;;19.80;48.60;;;;;;5091782;28;20035;-53
2021/03/29 12:24:39;;;;;;;7.07;1.85;;;19.80;48.60;;;;;;5090883;28;20066;-53
2021/03/29 12:27:05;;;;;;;6.90;2.25;;;19.80;48.30;;;;;;5091881;28;20454;-52
2021/03/29 12:29:40;;;;;;;8.65;3.80;;;19.80;49.50;;;;;;5091944;28;20107;-52
2021/03/29 12:32:08;;;;;;;10.80;4.28;;;19.90;50.40;;;;;;5091863;28;20465;-51
2021/03/29 12:34:35;;;;;;;10.00;2.70;;;20.00;47.40;;;;;;5072842;28;20025;-53
2021/03/29 12:37:03;;;;;;;3.80;2.20;;;19.90;47.70;;;;;;5073727;28;20031;-55
2021/03/29 12:41:59;;;;;;;6.78;2.60;;;19.90;48.60;;;;;;5091559;28;20035;-48
2021/03/29 12:44:26;;;;;;;8.02;2.50;;;19.80;48.50;;;;;;5090924;28;20024;-56
2021/03/29 12:46:56;;;;;;;8.65;2.40;;;19.80;49.10;;;;;;5092050;28;20113;-54
2021/03/29 12:49:22;;;;;;;5.10;2.00;;;20.00;48.70;;;;;;5091906;28;20016;-56
2021/03/29 12:51:57;;;;;;;5.18;1.83;;;20.10;47.90;;;;;;5091766;28;20389;-55
2021/03/29 12:54:29;;;;;;;5.32;2.33;;;20.30;46.00;;;;;;5090752;28;20082;-51
2021/03/29 12:56:55;;;;;;;5.88;1.95;;;20.30;45.10;;;;;;5091265;28;20028;-53
2021/03/29 12:59:22;;;;;;;4.28;2.00;;;20.20;44.00;;;;;;5073343;28;20055;-51
2021/03/29 13:01:49;;;;;;;8.35;2.60;;;20.20;44.80;;;;;;5091834;28;20028;-52
2021/03/29 13:04:22;;;;;;;4.60;1.83;;;20.10;45.30;;;;;;5091140;28;20024;-52
2021/03/29 13:09:42;;;;;;;10.13;2.90;;;20.20;44.60;;;;;;5095101;28;20024;-53